Time;durP1;ratioP1;P1;durP2;ratioP2;P2;SDS_P1;SDS_P2;PMS_P1;PMS_P2;Temp;Humidity;BMP_temperature;BMP_pressure;BME280_temperature;BME280_humidity;BME280_pressure;Samples;Min_cycle;Max_cycle;Signal;HPM_P1;HPM_P2
2022/08/31 00:05:07;;;;;;;11.18;6.93;;;19.00;90.30;;;;;;5100007;28;20047;-65
2022/08/31 00:07:33;;;;;;;8.98;6.72;;;18.90;90.90;;;;;;5100991;28;20055;-64
2022/08/31 00:10:02;;;;;;;10.77;7.40;;;18.90;91.10;;;;;;5105749;28;20082;-65
2022/08/31 00:12:28;;;;;;;9.95;7.00;;;18.90;91.60;;;;;;5082075;28;20047;-65
2022/08/31 00:14:54;;;;;;;11.90;7.38;;;18.80;91.90;;;;;;5096215;28;20435;-65
2022/08/31 00:17:20;;;;;;;10.65;7.30;;;18.80;92.00;;;;;;5091783;28;20020;-65
2022/08/31 00:19:46;;;;;;;11.80;8.75;;;18.90;93.40;;;;;;5092596;28;20032;-65
2022/08/31 00:22:11;;;;;;;11.77;7.68;;;18.90;93.90;;;;;;5090474;28;20366;-65
2022/08/31 00:24:37;;;;;;;10.57;7.82;;;18.80;94.20;;;;;;5111270;28;20028;-65
2022/08/31 00:27:03;;;;;;;11.00;7.88;;;18.80;94.60;;;;;;5108595;28;20020;-64
2022/08/31 00:29:29;;;;;;;10.75;8.25;;;18.90;94.60;;;;;;5103560;27;20024;-65
2022/08/31 00:31:54;;;;;;;11.60;8.52;;;18.90;94.80;;;;;;5111508;28;20366;-65
2022/08/31 00:34:21;;;;;;;12.43;8.52;;;18.80;95.00;;;;;;5116098;27;20019;-65
2022/08/31 00:36:47;;;;;;;12.73;8.48;;;18.80;94.80;;;;;;5096281;28;20054;-65
2022/08/31 00:39:13;;;;;;;11.10;8.80;;;18.80;94.80;;;;;;5099774;28;20028;-66
2022/08/31 00:41:39;;;;;;;11.15;9.23;;;18.70;95.30;;;;;;5117050;28;20088;-64
2022/08/31 00:44:08;;;;;;;12.18;9.30;;;18.70;95.70;;;;;;5103763;28;20036;-66
2022/08/31 00:46:38;;;;;;;15.13;9.55;;;18.60;96.00;;;;;;5112831;27;20020;-64
2022/08/31 00:49:08;;;;;;;13.40;10.05;;;18.50;96.40;;;;;;5107002;28;20036;-65
2022/08/31 00:51:44;;;;;;;14.40;9.40;;;18.40;96.40;;;;;;5107925;28;20345;-65
2022/08/31 00:54:13;;;;;;;15.20;10.45;;;18.20;96.50;;;;;;5107623;28;20023;-65
2022/08/31 00:56:40;;;;;;;15.98;10.00;;;18.10;96.30;;;;;;5107488;28;20024;-65
2022/08/31 00:59:06;;;;;;;14.82;9.98;;;17.90;96.10;;;;;;5110430;28;20063;-64
2022/08/31 01:01:32;;;;;;;13.18;10.75;;;17.60;95.30;;;;;;5105013;28;20043;-64
2022/08/31 01:03:58;;;;;;;16.75;10.15;;;17.30;94.60;;;;;;5115356;28;20023;-65
2022/08/31 01:06:24;;;;;;;14.30;9.73;;;17.10;94.70;;;;;;5104068;28;20039;-68
2022/08/31 01:08:52;;;;;;;14.90;10.43;;;16.90;93.70;;;;;;5088877;28;20504;-66
2022/08/31 01:11:19;;;;;;;14.10;10.05;;;16.70;93.00;;;;;;5095386;28;20035;-67
2022/08/31 01:13:46;;;;;;;16.33;10.48;;;16.50;92.30;;;;;;5105775;28;20054;-65
2022/08/31 01:16:30;;;;;;;16.17;11.15;;;16.30;90.70;;;;;;5108635;27;20032;-67
2022/08/31 01:18:57;;;;;;;17.65;11.38;;;16.20;89.70;;;;;;5112145;27;20058;-68
2022/08/31 01:21:40;;;;;;;11.60;9.18;;;16.10;88.90;;;;;;5118000;27;20063;-67
2022/08/31 01:24:07;;;;;;;14.05;10.85;;;16.00;89.00;;;;;;5089174;28;20101;-67
2022/08/31 01:26:33;;;;;;;14.98;9.68;;;15.90;88.60;;;;;;5112719;28;20458;-66
2022/08/31 01:29:03;;;;;;;16.55;10.95;;;15.80;88.30;;;;;;5117463;28;20118;-67
2022/08/31 01:31:40;;;;;;;14.40;10.30;;;15.70;87.20;;;;;;5121035;27;20061;-67
2022/08/31 01:34:06;;;;;;;15.90;11.02;;;15.60;86.90;;;;;;5100438;28;20038;-66
2022/08/31 01:36:37;;;;;;;14.95;10.02;;;15.60;86.10;;;;;;5102775;28;20042;-65
2022/08/31 01:39:04;;;;;;;17.00;11.35;;;15.50;85.90;;;;;;5104587;27;20086;-66
2022/08/31 01:41:30;;;;;;;17.85;11.38;;;15.50;85.20;;;;;;5113756;28;20024;-66
2022/08/31 01:43:56;;;;;;;17.75;11.95;;;15.50;84.50;;;;;;5097395;28;20489;-67
2022/08/31 01:46:22;;;;;;;17.27;11.07;;;15.50;84.60;;;;;;5111745;28;20499;-67
2022/08/31 01:48:48;;;;;;;17.33;11.20;;;15.40;86.30;;;;;;5107642;27;20020;-67
2022/08/31 01:51:17;;;;;;;18.08;12.35;;;15.30;85.70;;;;;;5091110;28;20016;-67
2022/08/31 01:53:47;;;;;;;14.40;11.85;;;15.30;85.30;;;;;;5114641;28;20034;-67
2022/08/31 01:56:16;;;;;;;15.48;11.45;;;15.30;84.70;;;;;;5108733;28;20020;-67
2022/08/31 01:58:42;;;;;;;22.67;13.27;;;15.20;84.40;;;;;;5108757;27;20088;-65
2022/08/31 02:01:08;;;;;;;15.60;12.55;;;15.20;84.50;;;;;;5107964;28;20028;-65
2022/08/31 02:03:34;;;;;;;17.48;11.95;;;15.20;83.90;;;;;;5104145;28;20035;-65
2022/08/31 02:06:07;;;;;;;16.30;11.93;;;15.20;83.30;;;;;;5089788;28;20048;-67
2022/08/31 02:08:33;;;;;;;16.83;12.85;;;15.20;82.60;;;;;;5083641;28;20024;-67
2022/08/31 02:10:58;;;;;;;19.30;12.82;;;15.20;83.60;;;;;;5095582;28;20032;-67
2022/08/31 02:13:24;;;;;;;15.63;11.95;;;15.10;83.00;;;;;;5095263;28;20086;-65
2022/08/31 02:15:50;;;;;;;14.63;10.65;;;15.20;82.20;;;;;;5094037;28;20024;-67
2022/08/31 02:18:16;;;;;;;15.10;9.75;;;15.20;81.80;;;;;;5091494;28;20032;-66
2022/08/31 02:20:41;;;;;;;12.98;9.82;;;15.30;81.70;;;;;;5095777;28;20368;-65
2022/08/31 02:23:07;;;;;;;13.98;8.95;;;15.30;81.80;;;;;;5092145;28;20107;-65
2022/08/31 02:25:35;;;;;;;15.05;11.27;;;15.30;81.60;;;;;;5092907;28;20035;-65
2022/08/31 02:28:04;;;;;;;14.13;11.18;;;15.30;81.00;;;;;;5094498;28;20027;-65
2022/08/31 02:30:30;;;;;;;12.13;9.77;;;15.20;81.30;;;;;;5093355;28;20030;-67
2022/08/31 02:32:55;;;;;;;13.75;10.70;;;15.20;81.40;;;;;;5084717;28;20491;-67
2022/08/31 02:35:21;;;;;;;17.15;10.40;;;15.20;80.50;;;;;;5089865;28;20112;-66
2022/08/31 02:37:47;;;;;;;14.55;11.45;;;15.20;81.30;;;;;;5092091;28;20020;-66
2022/08/31 02:40:13;;;;;;;16.92;11.55;;;15.20;81.00;;;;;;5089312;28;20027;-65
2022/08/31 02:42:39;;;;;;;15.13;10.88;;;15.20;81.30;;;;;;5073947;28;20036;-65
2022/08/31 02:45:06;;;;;;;12.07;8.68;;;15.10;81.70;;;;;;5092181;28;20487;-66
2022/08/31 02:47:34;;;;;;;16.10;12.10;;;15.20;80.80;;;;;;5091394;28;20422;-66
2022/08/31 02:50:04;;;;;;;17.48;12.07;;;15.20;80.80;;;;;;5079117;28;20016;-65
2022/08/31 02:52:30;;;;;;;17.75;11.73;;;15.20;80.70;;;;;;5089715;28;20132;-66
2022/08/31 02:54:56;;;;;;;17.58;11.88;;;15.20;81.00;;;;;;5097734;28;20107;-66
2022/08/31 02:57:22;;;;;;;15.45;11.70;;;15.20;81.20;;;;;;5101051;28;20069;-66
2022/08/31 02:59:50;;;;;;;17.85;13.27;;;15.20;81.00;;;;;;5084654;28;20028;-67
2022/08/31 03:02:16;;;;;;;17.17;13.38;;;15.20;80.80;;;;;;5087026;28;20047;-67
2022/08/31 03:04:42;;;;;;;18.20;13.50;;;15.20;81.20;;;;;;5104109;28;20356;-65
2022/08/31 03:07:08;;;;;;;18.55;13.27;;;15.10;80.80;;;;;;5095155;28;20020;-65
2022/08/31 03:09:34;;;;;;;20.25;14.68;;;15.20;79.70;;;;;;5091899;28;20114;-65
2022/08/31 03:11:59;;;;;;;21.45;15.05;;;15.20;80.30;;;;;;5092275;28;20099;-65
2022/08/31 03:14:25;;;;;;;19.30;14.45;;;15.20;79.70;;;;;;5094901;28;20095;-67
2022/08/31 03:16:52;;;;;;;25.92;15.70;;;15.20;80.50;;;;;;5091579;28;20032;-66
2022/08/31 03:19:18;;;;;;;21.35;14.50;;;15.10;79.70;;;;;;5091802;28;20024;-67
2022/08/31 03:21:45;;;;;;;20.35;13.65;;;15.10;79.80;;;;;;5098011;28;20031;-68
2022/08/31 03:24:12;;;;;;;19.20;15.45;;;15.10;80.00;;;;;;5092641;28;20043;-66
2022/08/31 03:26:38;;;;;;;21.02;15.07;;;15.00;80.10;;;;;;5092369;28;20082;-68
2022/08/31 03:29:03;;;;;;;21.92;16.45;;;15.00;80.40;;;;;;5093848;28;20429;-67
2022/08/31 03:31:30;;;;;;;23.30;17.83;;;15.00;80.40;;;;;;5094236;28;20027;-67
2022/08/31 03:33:58;;;;;;;22.13;17.17;;;14.90;79.80;;;;;;5092215;28;20028;-68
2022/08/31 03:36:23;;;;;;;20.85;16.10;;;15.00;78.80;;;;;;5092464;28;20020;-66
2022/08/31 03:38:49;;;;;;;22.50;17.00;;;15.00;79.10;;;;;;5091162;28;20416;-67
2022/08/31 03:41:19;;;;;;;22.45;16.90;;;14.90;79.10;;;;;;5092277;28;20039;-67
2022/08/31 03:43:45;;;;;;;29.50;18.15;;;15.00;78.40;;;;;;5092921;28;20024;-67
2022/08/31 03:46:10;;;;;;;27.27;19.63;;;15.00;78.20;;;;;;5099002;28;20032;-67
2022/08/31 03:48:36;;;;;;;23.48;18.33;;;15.00;78.20;;;;;;5093900;28;20067;-68
2022/08/31 03:51:02;;;;;;;30.02;19.98;;;15.00;78.20;;;;;;5091818;28;20056;-66
2022/08/31 03:53:27;;;;;;;28.23;19.98;;;14.90;77.90;;;;;;5090267;28;20752;-67
2022/08/31 03:56:00;;;;;;;24.13;17.60;;;14.90;77.40;;;;;;5093365;28;20075;-68
2022/08/31 03:58:28;;;;;;;35.97;25.02;;;14.90;77.30;;;;;;5091726;28;20199;-68
2022/08/31 04:00:54;;;;;;;29.52;21.23;;;14.90;77.10;;;;;;5093109;28;20031;-68
2022/08/31 04:03:20;;;;;;;28.55;21.13;;;14.90;76.60;;;;;;5093451;28;20035;-67
2022/08/31 04:05:45;;;;;;;26.08;19.25;;;14.90;76.90;;;;;;5110645;28;20051;-68
2022/08/31 04:08:12;;;;;;;31.10;21.75;;;14.90;76.60;;;;;;5110194;28;20031;-67
2022/08/31 04:10:40;;;;;;;25.08;19.90;;;14.90;76.70;;;;;;5114136;28;20015;-68
2022/08/31 04:13:05;;;;;;;25.85;19.30;;;14.90;76.90;;;;;;5110995;28;20369;-67
2022/08/31 04:15:31;;;;;;;26.95;19.70;;;14.80;76.40;;;;;;5111285;28;20095;-68
2022/08/31 04:17:59;;;;;;;21.02;17.20;;;14.90;76.20;;;;;;5112653;28;20061;-68
2022/08/31 04:20:34;;;;;;;21.08;16.35;;;14.90;76.40;;;;;;5109439;28;20463;-68
2022/08/31 04:23:00;;;;;;;24.45;19.25;;;14.90;76.50;;;;;;5114730;28;20106;-68
2022/08/31 04:25:26;;;;;;;27.08;17.65;;;14.90;77.20;;;;;;5112048;28;20118;-69
2022/08/31 04:27:53;;;;;;;25.23;18.35;;;14.80;77.00;;;;;;5111590;28;20118;-69
2022/08/31 04:30:20;;;;;;;21.55;16.92;;;14.80;76.80;;;;;;5112152;28;20156;-68
2022/08/31 04:32:46;;;;;;;22.92;17.63;;;14.80;77.20;;;;;;5113707;28;20317;-68
2022/08/31 04:35:12;;;;;;;22.40;16.98;;;14.80;77.10;;;;;;5112659;28;20027;-69
2022/08/31 04:37:40;;;;;;;29.98;20.58;;;14.70;77.10;;;;;;5109147;28;20490;-69
2022/08/31 04:40:16;;;;;;;18.55;15.02;;;14.80;76.70;;;;;;5108880;28;20324;-69
2022/08/31 04:42:43;;;;;;;26.77;18.85;;;14.80;76.50;;;;;;5112259;28;20036;-70
2022/08/31 04:45:11;;;;;;;25.77;19.20;;;14.70;76.90;;;;;;5111691;28;20020;-69
2022/08/31 04:47:37;;;;;;;30.45;20.52;;;14.80;76.80;;;;;;5112328;28;20119;-69
2022/08/31 04:50:04;;;;;;;27.98;21.00;;;14.80;76.80;;;;;;5111372;28;20320;-69
2022/08/31 04:52:30;;;;;;;31.63;22.98;;;14.70;76.90;;;;;;5111720;28;20027;-69
2022/08/31 04:54:55;;;;;;;30.05;21.13;;;14.70;76.90;;;;;;5093187;28;20076;-69
2022/08/31 04:57:21;;;;;;;27.77;19.73;;;14.70;76.50;;;;;;5110289;28;20016;-70
2022/08/31 04:59:46;;;;;;;21.75;17.55;;;14.70;76.10;;;;;;5112143;28;20030;-69
2022/08/31 05:02:14;;;;;;;22.55;18.27;;;14.70;76.20;;;;;;5110818;28;20102;-68
2022/08/31 05:04:40;;;;;;;43.15;28.13;;;14.70;75.80;;;;;;5113587;28;20176;-69
2022/08/31 05:07:06;;;;;;;30.10;21.45;;;14.70;75.80;;;;;;5113811;28;20399;-69
2022/08/31 05:09:31;;;;;;;32.70;23.30;;;14.70;75.40;;;;;;5117538;28;20096;-69
2022/08/31 05:11:57;;;;;;;27.80;21.80;;;14.80;75.20;;;;;;5116547;28;20031;-69
2022/08/31 05:14:23;;;;;;;31.02;21.98;;;14.80;75.40;;;;;;5120492;27;20012;-68
2022/08/31 05:16:49;;;;;;;30.27;22.88;;;14.70;75.80;;;;;;5123880;27;20020;-67
2022/08/31 05:19:14;;;;;;;35.08;24.27;;;14.70;75.30;;;;;;5118608;28;20103;-68
2022/08/31 05:21:42;;;;;;;33.65;23.88;;;14.70;75.40;;;;;;5114475;27;20031;-68
2022/08/31 05:24:12;;;;;;;29.38;20.27;;;14.70;75.70;;;;;;5116023;27;20031;-68
2022/08/31 05:26:47;;;;;;;39.72;24.40;;;14.60;75.60;;;;;;5113416;28;20118;-70
2022/08/31 05:29:14;;;;;;;25.00;18.83;;;14.60;75.70;;;;;;5114382;28;20023;-70
2022/08/31 05:31:41;;;;;;;26.65;18.52;;;14.50;75.90;;;;;;5110061;28;20037;-70
2022/08/31 05:34:07;;;;;;;25.85;17.58;;;14.50;75.60;;;;;;5113616;28;20020;-70
2022/08/31 05:36:33;;;;;;;29.00;19.73;;;14.60;75.40;;;;;;5114649;28;20029;-70
2022/08/31 05:38:59;;;;;;;18.70;15.05;;;14.60;75.50;;;;;;5115120;28;20032;-71
2022/08/31 05:41:27;;;;;;;16.58;14.07;;;14.50;76.00;;;;;;5113106;28;20145;-71
2022/08/31 05:43:52;;;;;;;22.27;15.27;;;14.50;76.30;;;;;;5111559;27;20361;-69
2022/08/31 05:46:18;;;;;;;22.52;16.38;;;14.50;75.80;;;;;;5096050;28;20031;-68
2022/08/31 05:48:44;;;;;;;25.42;18.05;;;14.50;76.20;;;;;;5115930;28;20431;-68
2022/08/31 05:51:14;;;;;;;16.73;13.32;;;14.50;75.90;;;;;;5112329;28;20024;-71
2022/08/31 05:53:41;;;;;;;19.33;14.65;;;14.50;75.80;;;;;;5113775;28;20032;-70
2022/08/31 05:56:12;;;;;;;26.73;18.02;;;14.50;75.60;;;;;;5116141;27;20338;-71
2022/08/31 05:58:40;;;;;;;20.63;16.13;;;14.60;75.80;;;;;;5114486;28;20024;-70
2022/08/31 06:01:24;;;;;;;24.35;17.55;;;14.50;76.10;;;;;;5104527;28;20024;-70
2022/08/31 06:03:50;;;;;;;20.40;14.82;;;14.50;75.90;;;;;;5112450;28;20031;-70
2022/08/31 06:06:16;;;;;;;21.10;15.98;;;14.50;75.80;;;;;;5113477;28;20031;-71
2022/08/31 06:08:42;;;;;;;17.02;12.82;;;14.50;75.70;;;;;;5111913;28;20027;-71
2022/08/31 06:11:16;;;;;;;17.17;11.98;;;14.50;75.60;;;;;;5110963;28;20035;-70
2022/08/31 06:13:42;;;;;;;21.83;16.20;;;14.50;76.20;;;;;;5106595;27;20030;-71
2022/08/31 06:16:08;;;;;;;18.17;13.38;;;14.50;75.80;;;;;;5112569;27;20109;-71
2022/08/31 06:18:37;;;;;;;18.88;14.23;;;14.60;75.60;;;;;;5114642;27;20038;-72
2022/08/31 06:21:11;;;;;;;18.63;12.73;;;14.60;75.80;;;;;;5097816;28;20027;-71
2022/08/31 06:23:37;;;;;;;;;;;14.60;75.80;;;;;;5112055;28;20106;-71
2022/08/31 06:26:05;;;;;;;16.15;11.75;;;14.60;76.00;;;;;;5112339;28;19912;-70
2022/08/31 06:28:32;;;;;;;11.82;9.00;;;14.60;75.70;;;;;;5116190;28;20020;-71
2022/08/31 06:31:01;;;;;;;13.43;10.40;;;14.50;76.70;;;;;;5111901;28;20412;-71
2022/08/31 06:33:28;;;;;;;13.90;10.20;;;14.40;77.30;;;;;;5117187;28;20028;-71
2022/08/31 06:35:54;;;;;;;13.95;11.20;;;14.40;78.30;;;;;;5116053;28;20345;-71
2022/08/31 06:38:21;;;;;;;12.98;10.23;;;14.40;77.80;;;;;;5113112;28;20031;-71
2022/08/31 06:40:46;;;;;;;15.02;11.65;;;14.40;78.30;;;;;;5113411;28;20023;-71
2022/08/31 06:43:12;;;;;;;13.70;10.65;;;14.40;77.90;;;;;;5115183;27;20549;-71
2022/08/31 06:45:38;;;;;;;15.85;11.52;;;14.50;77.20;;;;;;5114754;28;20024;-71
2022/08/31 06:48:04;;;;;;;14.15;11.15;;;14.60;76.90;;;;;;5117356;28;20378;-72
2022/08/31 06:50:30;;;;;;;18.35;10.88;;;14.60;77.00;;;;;;5115334;28;20076;-72
2022/08/31 06:52:56;;;;;;;14.55;11.02;;;14.70;76.60;;;;;;5098302;28;20015;-71
2022/08/31 06:55:22;;;;;;;15.20;11.07;;;14.70;77.60;;;;;;5116400;27;20023;-71
2022/08/31 06:57:47;;;;;;;14.00;10.50;;;14.70;78.30;;;;;;5118223;27;20034;-70
2022/08/31 07:00:13;;;;;;;12.90;10.07;;;14.70;77.70;;;;;;5122917;27;20028;-72
2022/08/31 07:02:39;;;;;;;15.02;11.05;;;14.80;77.90;;;;;;5116284;28;20031;-71
2022/08/31 07:05:05;;;;;;;15.70;11.10;;;14.80;77.80;;;;;;5114012;28;20581;-71
2022/08/31 07:07:31;;;;;;;13.13;10.45;;;14.80;77.40;;;;;;5115935;27;20030;-71
2022/08/31 07:09:57;;;;;;;13.55;10.75;;;14.90;77.50;;;;;;5117866;27;20032;-71
2022/08/31 07:12:22;;;;;;;15.27;11.32;;;14.90;77.70;;;;;;5115512;28;20444;-70
2022/08/31 07:14:48;;;;;;;18.45;13.05;;;14.90;77.50;;;;;;5115237;28;20023;-71
2022/08/31 07:17:14;;;;;;;13.63;9.15;;;14.90;77.30;;;;;;5116008;28;20049;-71
2022/08/31 07:19:39;;;;;;;16.13;12.48;;;14.90;77.10;;;;;;5115174;28;20015;-71
2022/08/31 07:22:08;;;;;;;17.02;11.68;;;15.00;77.20;;;;;;5116479;28;20031;-71
2022/08/31 07:24:35;;;;;;;14.52;9.98;;;15.00;77.60;;;;;;5114482;27;20098;-71
2022/08/31 07:27:10;;;;;;;10.98;7.30;;;15.00;77.20;;;;;;5115289;27;20034;-71
2022/08/31 07:29:44;;;;;;;14.10;9.30;;;15.00;77.30;;;;;;5115534;28;20051;-72
2022/08/31 07:32:13;;;;;;;12.95;9.48;;;15.00;77.60;;;;;;5114140;28;20024;-71
2022/08/31 07:34:39;;;;;;;16.48;12.63;;;15.00;77.60;;;;;;5114687;28;20114;-71
2022/08/31 07:42:38;;;;;;;17.55;13.18;;;14.90;77.90;;;;;;5114502;28;20367;-71
2022/08/31 07:45:06;;;;;;;21.77;14.70;;;14.90;78.20;;;;;;5114582;28;20106;-71
2022/08/31 07:47:34;;;;;;;19.13;13.98;;;14.90;77.40;;;;;;5104005;28;20030;-71
2022/08/31 07:50:03;;;;;;;17.52;13.20;;;14.80;78.00;;;;;;5120561;27;20401;-71
2022/08/31 07:52:31;;;;;;;16.60;12.80;;;14.70;78.50;;;;;;5114796;28;20404;-71
2022/08/31 07:55:09;;;;;;;19.27;12.68;;;14.60;78.60;;;;;;5112953;27;20027;-71
2022/08/31 07:57:39;;;;;;;17.77;13.93;;;14.60;78.50;;;;;;5116365;27;20023;-71
2022/08/31 08:00:08;;;;;;;14.20;10.38;;;14.60;77.70;;;;;;5113269;28;20059;-70
2022/08/31 08:02:38;;;;;;;18.05;13.65;;;14.60;77.30;;;;;;5096835;28;20324;-71
2022/08/31 08:05:10;;;;;;;18.80;13.85;;;14.50;78.60;;;;;;5105809;28;20081;-71
2022/08/31 08:07:37;;;;;;;16.45;12.80;;;14.50;77.90;;;;;;5096846;28;20039;-71
2022/08/31 08:10:06;;;;;;;15.77;10.77;;;14.50;78.50;;;;;;5081354;28;20420;-72
2022/08/31 08:12:35;;;;;;;17.95;12.55;;;14.40;78.60;;;;;;5114321;28;20030;-71
2022/08/31 08:15:03;;;;;;;16.20;11.82;;;14.40;78.80;;;;;;5109228;28;20020;-71
2022/08/31 08:17:28;;;;;;;14.23;9.98;;;14.40;78.40;;;;;;5097855;28;20027;-71
2022/08/31 08:19:54;;;;;;;19.20;12.45;;;14.30;78.70;;;;;;5096868;28;20408;-71
2022/08/31 08:22:20;;;;;;;16.67;12.23;;;14.40;78.60;;;;;;5096875;28;20032;-72
2022/08/31 08:24:46;;;;;;;15.20;11.27;;;14.40;79.50;;;;;;5094620;28;20062;-72
2022/08/31 08:27:12;;;;;;;12.07;9.93;;;14.40;78.90;;;;;;5104784;28;20107;-72
2022/08/31 08:29:39;;;;;;;13.48;10.38;;;14.50;78.50;;;;;;5108294;28;20308;-72
2022/08/31 08:32:07;;;;;;;12.43;10.00;;;14.50;78.40;;;;;;5109987;28;20027;-73
2022/08/31 08:34:33;;;;;;;14.45;10.93;;;14.60;78.20;;;;;;5100554;28;20030;-73
2022/08/31 08:37:00;;;;;;;10.77;8.30;;;14.70;78.50;;;;;;5109403;28;20051;-72
2022/08/31 08:39:26;;;;;;;12.13;9.40;;;14.70;79.30;;;;;;5096646;28;20392;-72
2022/08/31 08:41:56;;;;;;;12.25;8.52;;;14.80;78.70;;;;;;5080750;28;20466;-70
2022/08/31 08:44:26;;;;;;;12.23;9.10;;;14.90;80.00;;;;;;5101190;28;20393;-72
2022/08/31 08:46:57;;;;;;;13.25;9.65;;;15.00;80.80;;;;;;5111976;28;20031;-70
2022/08/31 08:50:05;;;;;;;11.13;8.82;;;15.20;80.20;;;;;;5106744;28;20027;-70
2022/08/31 08:52:40;;;;;;;10.90;8.68;;;15.20;83.30;;;;;;5044155;28;20122;-70
2022/08/31 08:55:14;;;;;;;11.00;6.53;;;15.20;83.20;;;;;;5031075;28;20029;-70
2022/08/31 08:57:43;;;;;;;8.90;7.13;;;15.40;82.50;;;;;;5084472;28;20039;-70
2022/08/31 09:00:21;;;;;;;8.88;6.50;;;15.40;84.60;;;;;;5107397;28;20028;-69
2022/08/31 09:02:47;;;;;;;8.55;6.40;;;15.40;85.30;;;;;;5112369;28;20023;-70
2022/08/31 09:05:20;;;;;;;12.23;7.95;;;15.50;84.10;;;;;;5094814;28;20459;-70
2022/08/31 09:08:31;;;;;;;8.93;6.22;;;15.60;84.50;;;;;;5074611;28;20409;-70
2022/08/31 09:11:23;;;;;;;9.45;6.55;;;15.90;84.50;;;;;;5078729;28;20047;-70
2022/08/31 09:14:18;;;;;;;8.60;6.00;;;16.20;85.80;;;;;;5082602;28;20039;-70
2022/08/31 09:16:56;;;;;;;10.05;6.68;;;16.40;88.20;;;;;;5068443;28;20031;-69
2022/08/31 09:19:22;;;;;;;8.98;6.88;;;16.30;90.30;;;;;;5093771;28;20042;-70
2022/08/31 09:21:53;;;;;;;12.52;7.75;;;16.40;90.60;;;;;;5098273;28;20421;-70
2022/08/31 09:24:26;;;;;;;10.70;6.82;;;16.30;90.90;;;;;;5079310;28;20031;-70
2022/08/31 09:27:19;;;;;;;9.00;6.40;;;16.40;91.90;;;;;;5094211;28;20056;-70
2022/08/31 09:29:55;;;;;;;10.00;6.63;;;16.30;93.60;;;;;;5071881;28;20035;-70
2022/08/31 09:32:33;;;;;;;10.93;6.55;;;16.10;94.10;;;;;;5082869;28;20027;-71
2022/08/31 09:35:05;;;;;;;9.27;5.93;;;16.30;94.00;;;;;;5097317;28;20464;-70
2022/08/31 09:37:47;;;;;;;8.80;5.95;;;16.30;94.90;;;;;;5096566;28;20023;-70
2022/08/31 09:40:31;;;;;;;7.75;5.65;;;16.60;94.80;;;;;;5094884;28;20024;-70
2022/08/31 09:43:13;;;;;;;7.97;5.75;;;16.90;94.10;;;;;;5097194;28;20028;-70
2022/08/31 09:45:57;;;;;;;8.70;6.07;;;17.20;95.10;;;;;;5096859;28;20027;-69
2022/08/31 09:48:50;;;;;;;7.10;5.05;;;17.40;96.00;;;;;;5096142;28;20447;-70
2022/08/31 09:51:20;;;;;;;9.10;5.97;;;17.50;96.80;;;;;;5078611;28;20324;-68
2022/08/31 09:56:49;;;;;;;8.85;6.10;;;17.70;98.00;;;;;;5078310;28;20154;-69
2022/08/31 09:59:29;;;;;;;8.45;5.93;;;17.80;98.00;;;;;;5095815;28;20035;-69
2022/08/31 10:01:59;;;;;;;8.18;5.50;;;18.10;98.00;;;;;;5096847;28;20028;-68
2022/08/31 10:04:46;;;;;;;8.57;6.07;;;18.50;97.30;;;;;;5102465;28;20044;-69
2022/08/31 10:07:30;;;;;;;7.57;4.70;;;19.10;98.00;;;;;;5120758;27;20080;-69
2022/08/31 10:10:24;;;;;;;7.05;5.25;;;19.80;98.00;;;;;;5117279;27;20028;-68
2022/08/31 10:12:56;;;;;;;7.38;5.22;;;20.30;97.80;;;;;;5116986;28;20039;-69
2022/08/31 10:15:52;;;;;;;7.47;5.50;;;20.30;97.40;;;;;;5117113;28;20421;-69
2022/08/31 10:18:46;;;;;;;7.80;6.05;;;20.40;97.10;;;;;;5114811;28;20024;-70
2022/08/31 10:21:20;;;;;;;7.90;4.97;;;20.60;96.10;;;;;;5115967;28;20409;-68
2022/08/31 10:23:58;;;;;;;9.20;6.20;;;20.70;95.60;;;;;;5114091;28;20114;-69
2022/08/31 10:26:45;;;;;;;9.55;6.40;;;20.40;95.40;;;;;;5116623;28;20031;-69
2022/08/31 10:29:28;;;;;;;9.10;6.00;;;20.10;95.80;;;;;;5115714;28;20035;-68
2022/08/31 10:32:00;;;;;;;9.65;6.07;;;20.10;96.90;;;;;;5115465;28;20032;-68
2022/08/31 10:37:58;;;;;;;9.90;5.85;;;20.10;96.40;;;;;;5110192;28;20058;-68
2022/08/31 10:40:30;;;;;;;7.63;5.35;;;20.20;96.10;;;;;;5109998;28;20459;-68
2022/08/31 10:43:20;;;;;;;9.40;6.13;;;20.20;95.70;;;;;;5116432;28;20035;-67
2022/08/31 10:45:48;;;;;;;7.43;5.07;;;20.30;95.50;;;;;;5115692;28;20031;-68
2022/08/31 10:48:22;;;;;;;8.93;5.72;;;20.30;95.80;;;;;;5117107;27;20063;-68
2022/08/31 10:51:19;;;;;;;10.25;5.28;;;19.90;96.60;;;;;;5117120;27;20015;-66
2022/08/31 10:53:51;;;;;;;11.13;5.20;;;19.60;96.70;;;;;;5094015;28;20380;-68
2022/08/31 10:56:36;;;;;;;10.57;6.60;;;19.90;98.00;;;;;;5115584;28;20028;-66
2022/08/31 10:59:12;;;;;;;8.77;5.47;;;20.30;96.40;;;;;;5114871;28;20055;-67
2022/08/31 11:01:53;;;;;;;10.38;7.20;;;20.50;96.00;;;;;;5094212;28;20474;-67
2022/08/31 11:04:40;;;;;;;10.68;6.90;;;20.70;93.50;;;;;;5125927;27;20051;-68
2022/08/31 11:07:06;;;;;;;10.35;7.72;;;20.30;95.40;;;;;;5102693;28;20035;-67
2022/08/31 11:10:12;;;;;;;12.02;8.50;;;20.30;95.30;;;;;;5115591;28;20110;-67
2022/08/31 11:12:47;;;;;;;13.68;9.57;;;20.00;95.00;;;;;;5084801;28;20132;-67
2022/08/31 11:15:37;;;;;;;10.27;7.85;;;19.80;96.10;;;;;;5116610;28;20023;-69
2022/08/31 11:18:24;;;;;;;9.95;7.03;;;20.10;96.20;;;;;;5114807;28;20023;-68
2022/08/31 11:21:12;;;;;;;13.75;9.75;;;20.20;95.20;;;;;;5110819;28;20421;-68
2022/08/31 11:24:01;;;;;;;10.23;6.47;;;20.60;94.10;;;;;;5100194;28;20064;-67
2022/08/31 11:26:46;;;;;;;10.25;6.63;;;20.60;95.10;;;;;;5109379;28;20030;-68
2022/08/31 11:29:27;;;;;;;13.65;9.02;;;21.30;93.80;;;;;;5114099;28;20023;-68
2022/08/31 11:32:04;;;;;;;11.35;8.90;;;21.80;92.00;;;;;;5113427;28;20084;-68
2022/08/31 11:34:46;;;;;;;12.57;9.50;;;21.30;91.60;;;;;;5112937;28;20028;-68
2022/08/31 11:37:33;;;;;;;12.60;9.02;;;21.00;94.10;;;;;;5114195;28;20019;-68
2022/08/31 11:39:59;;;;;;;13.27;9.88;;;21.10;94.20;;;;;;5076819;28;20054;-67
2022/08/31 11:42:30;;;;;;;13.73;10.25;;;20.90;93.80;;;;;;5110628;28;20024;-68
2022/08/31 11:45:05;;;;;;;9.38;7.70;;;20.70;94.80;;;;;;5114642;28;20040;-68
2022/08/31 11:47:41;;;;;;;16.50;11.00;;;20.80;95.30;;;;;;5118381;27;20719;-68
2022/08/31 11:50:26;;;;;;;12.07;10.32;;;21.00;93.50;;;;;;5116153;28;20052;-67
2022/08/31 11:52:55;;;;;;;13.95;9.30;;;20.80;93.90;;;;;;5115563;28;20094;-68
2022/08/31 11:55:54;;;;;;;15.40;10.65;;;20.80;95.10;;;;;;5115349;28;20050;-67
2022/08/31 11:58:31;;;;;;;14.65;10.40;;;20.80;94.20;;;;;;5076414;28;20043;-67
2022/08/31 12:01:33;;;;;;;13.18;10.20;;;20.90;94.30;;;;;;5115976;28;20530;-67
2022/08/31 12:04:05;;;;;;;13.35;10.77;;;21.00;94.20;;;;;;5112450;28;20047;-67
2022/08/31 12:06:35;;;;;;;18.42;12.55;;;20.70;94.90;;;;;;5126987;28;20099;-67
2022/08/31 12:09:36;;;;;;;12.80;11.07;;;20.30;94.60;;;;;;5115010;28;20042;-68
2022/08/31 12:12:23;;;;;;;13.95;12.25;;;20.00;96.00;;;;;;5129930;28;20068;-67
2022/08/31 12:15:17;;;;;;;15.05;11.35;;;20.30;96.30;;;;;;5115005;28;20016;-67
2022/08/31 12:18:10;;;;;;;14.15;10.35;;;20.90;94.40;;;;;;5101059;28;20351;-68
2022/08/31 12:24:22;;;;;;;16.13;10.38;;;22.10;91.30;;;;;;5115954;28;20031;-67
2022/08/31 12:26:57;;;;;;;13.07;9.82;;;22.70;90.30;;;;;;5118100;28;20047;-68
2022/08/31 12:29:26;;;;;;;13.48;8.93;;;23.30;86.90;;;;;;5118805;28;20039;-67
2022/08/31 12:32:53;;;;;;;10.23;7.32;;;23.00;87.50;;;;;;5119484;28;20100;-67
2022/08/31 12:35:27;;;;;;;14.45;10.52;;;22.90;87.90;;;;;;4997558;28;20145;-67
2022/08/31 12:37:59;;;;;;;15.93;11.38;;;22.60;88.80;;;;;;5090740;28;20034;-67
2022/08/31 12:40:28;;;;;;;14.05;10.23;;;22.60;89.00;;;;;;5118469;27;20019;-67
2022/08/31 12:43:05;;;;;;;15.48;9.85;;;23.00;89.70;;;;;;5140589;27;20031;-66
2022/08/31 12:46:03;;;;;;;12.02;9.50;;;23.20;87.20;;;;;;5137346;27;20320;-72
2022/08/31 12:48:29;;;;;;;12.55;10.45;;;22.60;89.90;;;;;;5097910;27;20043;-72
2022/08/31 12:50:57;;;;;;;13.65;10.35;;;22.20;91.10;;;;;;5120726;27;20019;-65
2022/08/31 12:54:05;;;;;;;12.40;10.07;;;22.00;91.80;;;;;;5118470;28;20020;-67
2022/08/31 12:57:29;;;;;;;15.45;11.05;;;21.90;92.80;;;;;;5062698;27;20033;-67
2022/08/31 13:00:04;;;;;;;13.48;10.60;;;22.30;90.20;;;;;;5106805;27;20031;-68
2022/08/31 13:02:32;;;;;;;11.20;9.45;;;21.90;91.50;;;;;;5134152;27;20096;-69
2022/08/31 13:05:19;;;;;;;10.90;8.60;;;22.80;90.80;;;;;;5121908;27;20387;-66
2022/08/31 13:07:46;;;;;;;12.02;9.30;;;23.40;88.50;;;;;;5099366;28;20024;-66
2022/08/31 13:10:26;;;;;;;10.85;8.68;;;23.60;85.70;;;;;;5085891;28;20020;-67
2022/08/31 13:12:58;;;;;;;12.65;8.40;;;23.40;88.00;;;;;;5091922;28;20028;-66
2022/08/31 13:15:31;;;;;;;10.50;7.40;;;23.50;88.00;;;;;;5094779;28;20012;-66